sensor_id;sensor_type;location;lat;lon;timestamp;P1;durP1;ratioP1;P2;durP2;ratioP2
23732;SDS011;12047;53.450;-2.286;2023-03-01T00:02:06;4.85;;;1.38;;
23732;SDS011;12047;53.450;-2.286;2023-03-01T00:07:07;5.70;;;1.40;;
23732;SDS011;12047;53.450;-2.286;2023-03-01T00:12:07;6.22;;;1.40;;
23732;SDS011;12047;53.450;-2.286;2023-03-01T00:17:08;5.80;;;1.55;;
23732;SDS011;12047;53.450;-2.286;2023-03-01T00:22:08;3.35;;;1.50;;
23732;SDS011;12047;53.450;-2.286;2023-03-01T00:27:09;5.50;;;1.92;;
23732;SDS011;12047;53.450;-2.286;2023-03-01T00:32:09;5.80;;;2.20;;
23732;SDS011;12047;53.450;-2.286;2023-03-01T00:37:10;5.22;;;1.73;;
23732;SDS011;12047;53.450;-2.286;2023-03-01T00:42:10;6.90;;;1.60;;
23732;SDS011;12047;53.450;-2.286;2023-03-01T00:47:11;6.35;;;1.80;;
23732;SDS011;12047;53.450;-2.286;2023-03-01T00:52:12;4.85;;;1.70;;
23732;SDS011;12047;53.450;-2.286;2023-03-01T00:57:12;6.22;;;1.70;;
23732;SDS011;12047;53.450;-2.286;2023-03-01T01:02:12;6.97;;;2.38;;
23732;SDS011;12047;53.450;-2.286;2023-03-01T01:07:13;5.97;;;1.83;;
23732;SDS011;12047;53.450;-2.286;2023-03-01T01:12:14;3.80;;;1.80;;
23732;SDS011;12047;53.450;-2.286;2023-03-01T01:17:14;4.25;;;1.65;;
23732;SDS011;12047;53.450;-2.286;2023-03-01T01:22:15;2.80;;;1.80;;
23732;SDS011;12047;53.450;-2.286;2023-03-01T01:27:15;3.00;;;1.40;;
23732;SDS011;12047;53.450;-2.286;2023-03-01T01:32:16;4.05;;;1.30;;
23732;SDS011;12047;53.450;-2.286;2023-03-01T01:37:16;3.30;;;1.10;;
23732;SDS011;12047;53.450;-2.286;2023-03-01T01:42:17;6.20;;;0.95;;
23732;SDS011;12047;53.450;-2.286;2023-03-01T01:47:19;1.70;;;0.90;;
23732;SDS011;12047;53.450;-2.286;2023-03-01T01:52:26;2.10;;;0.90;;
23732;SDS011;12047;53.450;-2.286;2023-03-01T01:57:38;4.93;;;1.02;;
23732;SDS011;12047;53.450;-2.286;2023-03-01T02:02:42;4.70;;;0.85;;
23732;SDS011;12047;53.450;-2.286;2023-03-01T02:07:44;2.95;;;1.10;;
23732;SDS011;12047;53.450;-2.286;2023-03-01T02:12:46;4.18;;;1.10;;
23732;SDS011;12047;53.450;-2.286;2023-03-01T02:17:48;3.47;;;0.85;;
23732;SDS011;12047;53.450;-2.286;2023-03-01T02:22:49;1.23;;;0.85;;
23732;SDS011;12047;53.450;-2.286;2023-03-01T02:33:12;1.25;;;0.50;;
23732;SDS011;12047;53.450;-2.286;2023-03-01T02:38:13;4.00;;;0.55;;
23732;SDS011;12047;53.450;-2.286;2023-03-01T02:43:13;4.30;;;0.80;;
23732;SDS011;12047;53.450;-2.286;2023-03-01T02:48:15;2.78;;;0.70;;
23732;SDS011;12047;53.450;-2.286;2023-03-01T02:53:16;2.38;;;1.00;;
23732;SDS011;12047;53.450;-2.286;2023-03-01T02:58:27;3.75;;;1.10;;
23732;SDS011;12047;53.450;-2.286;2023-03-01T03:03:28;1.38;;;0.90;;
23732;SDS011;12047;53.450;-2.286;2023-03-01T03:08:28;2.47;;;1.23;;
23732;SDS011;12047;53.450;-2.286;2023-03-01T03:13:29;5.30;;;1.25;;
23732;SDS011;12047;53.450;-2.286;2023-03-01T03:18:29;5.57;;;1.30;;
23732;SDS011;12047;53.450;-2.286;2023-03-01T03:23:31;3.15;;;1.10;;
23732;SDS011;12047;53.450;-2.286;2023-03-01T03:28:32;9.23;;;1.20;;
23732;SDS011;12047;53.450;-2.286;2023-03-01T03:33:34;4.82;;;1.20;;
23732;SDS011;12047;53.450;-2.286;2023-03-01T03:38:34;3.03;;;1.10;;
23732;SDS011;12047;53.450;-2.286;2023-03-01T03:43:36;4.53;;;1.20;;
23732;SDS011;12047;53.450;-2.286;2023-03-01T03:48:41;3.33;;;1.10;;
23732;SDS011;12047;53.450;-2.286;2023-03-01T03:53:44;2.28;;;1.00;;
23732;SDS011;12047;53.450;-2.286;2023-03-01T03:58:45;2.92;;;1.20;;
23732;SDS011;12047;53.450;-2.286;2023-03-01T04:03:45;1.98;;;1.10;;
23732;SDS011;12047;53.450;-2.286;2023-03-01T04:08:46;1.63;;;0.70;;
23732;SDS011;12047;53.450;-2.286;2023-03-01T04:13:51;2.22;;;0.60;;
23732;SDS011;12047;53.450;-2.286;2023-03-01T04:18:53;4.88;;;1.10;;
23732;SDS011;12047;53.450;-2.286;2023-03-01T04:23:53;2.22;;;0.80;;
23732;SDS011;12047;53.450;-2.286;2023-03-01T04:28:54;1.60;;;0.85;;
23732;SDS011;12047;53.450;-2.286;2023-03-01T04:33:55;1.02;;;0.50;;
23732;SDS011;12047;53.450;-2.286;2023-03-01T04:38:55;2.85;;;0.90;;
23732;SDS011;12047;53.450;-2.286;2023-03-01T04:43:56;6.47;;;0.93;;
23732;SDS011;12047;53.450;-2.286;2023-03-01T04:48:59;4.10;;;0.95;;
23732;SDS011;12047;53.450;-2.286;2023-03-01T04:54:00;2.47;;;0.75;;
23732;SDS011;12047;53.450;-2.286;2023-03-01T04:59:00;4.80;;;1.20;;
23732;SDS011;12047;53.450;-2.286;2023-03-01T05:04:05;1.63;;;1.20;;
23732;SDS011;12047;53.450;-2.286;2023-03-01T05:09:05;2.97;;;1.10;;
23732;SDS011;12047;53.450;-2.286;2023-03-01T05:14:07;4.82;;;1.42;;
23732;SDS011;12047;53.450;-2.286;2023-03-01T05:19:08;2.65;;;1.10;;
23732;SDS011;12047;53.450;-2.286;2023-03-01T05:24:15;6.10;;;1.45;;
23732;SDS011;12047;53.450;-2.286;2023-03-01T05:29:15;3.35;;;1.00;;
23732;SDS011;12047;53.450;-2.286;2023-03-01T05:34:17;1.35;;;0.90;;
23732;SDS011;12047;53.450;-2.286;2023-03-01T05:39:17;1.92;;;1.02;;
23732;SDS011;12047;53.450;-2.286;2023-03-01T05:44:19;2.38;;;1.00;;
23732;SDS011;12047;53.450;-2.286;2023-03-01T05:49:20;2.35;;;1.30;;
23732;SDS011;12047;53.450;-2.286;2023-03-01T05:54:23;1.08;;;0.90;;
23732;SDS011;12047;53.450;-2.286;2023-03-01T05:59:24;1.42;;;0.80;;
23732;SDS011;12047;53.450;-2.286;2023-03-01T06:04:25;2.25;;;1.10;;
23732;SDS011;12047;53.450;-2.286;2023-03-01T06:09:25;3.17;;;1.05;;
23732;SDS011;12047;53.450;-2.286;2023-03-01T06:14:26;1.85;;;0.80;;
23732;SDS011;12047;53.450;-2.286;2023-03-01T06:19:26;4.35;;;0.93;;
23732;SDS011;12047;53.450;-2.286;2023-03-01T06:24:27;1.83;;;0.80;;
23732;SDS011;12047;53.450;-2.286;2023-03-01T06:29:28;0.98;;;0.60;;
23732;SDS011;12047;53.450;-2.286;2023-03-01T06:34:30;3.58;;;1.05;;
23732;SDS011;12047;53.450;-2.286;2023-03-01T06:39:31;4.43;;;0.80;;
23732;SDS011;12047;53.450;-2.286;2023-03-01T06:44:32;3.38;;;0.90;;
23732;SDS011;12047;53.450;-2.286;2023-03-01T06:49:32;7.35;;;0.98;;
23732;SDS011;12047;53.450;-2.286;2023-03-01T06:54:33;3.25;;;1.00;;
23732;SDS011;12047;53.450;-2.286;2023-03-01T06:59:33;2.25;;;0.98;;
23732;SDS011;12047;53.450;-2.286;2023-03-01T07:04:34;2.53;;;0.90;;
23732;SDS011;12047;53.450;-2.286;2023-03-01T07:09:34;6.10;;;1.27;;
23732;SDS011;12047;53.450;-2.286;2023-03-01T07:14:35;4.13;;;0.82;;
23732;SDS011;12047;53.450;-2.286;2023-03-01T07:19:36;4.35;;;1.00;;
23732;SDS011;12047;53.450;-2.286;2023-03-01T07:24:36;5.35;;;1.38;;
23732;SDS011;12047;53.450;-2.286;2023-03-01T07:29:37;3.42;;;1.50;;
23732;SDS011;12047;53.450;-2.286;2023-03-01T07:34:37;4.47;;;1.10;;
23732;SDS011;12047;53.450;-2.286;2023-03-01T07:39:38;3.80;;;1.30;;
23732;SDS011;12047;53.450;-2.286;2023-03-01T07:44:38;3.53;;;1.50;;
23732;SDS011;12047;53.450;-2.286;2023-03-01T07:49:39;4.00;;;1.30;;
23732;SDS011;12047;53.450;-2.286;2023-03-01T07:54:42;3.13;;;1.38;;
23732;SDS011;12047;53.450;-2.286;2023-03-01T07:59:43;7.05;;;2.83;;
23732;SDS011;12047;53.450;-2.286;2023-03-01T08:04:44;9.48;;;4.13;;
23732;SDS011;12047;53.450;-2.286;2023-03-01T08:09:44;10.70;;;3.45;;
23732;SDS011;12047;53.450;-2.286;2023-03-01T08:14:45;7.35;;;3.10;;
23732;SDS011;12047;53.450;-2.286;2023-03-01T08:19:46;9.07;;;3.38;;
23732;SDS011;12047;53.450;-2.286;2023-03-01T08:24:49;8.25;;;3.78;;
23732;SDS011;12047;53.450;-2.286;2023-03-01T08:29:49;5.25;;;2.67;;
23732;SDS011;12047;53.450;-2.286;2023-03-01T08:34:50;5.82;;;1.65;;
23732;SDS011;12047;53.450;-2.286;2023-03-01T08:39:50;5.55;;;1.85;;
23732;SDS011;12047;53.450;-2.286;2023-03-01T08:44:51;3.85;;;1.50;;
23732;SDS011;12047;53.450;-2.286;2023-03-01T08:49:52;4.03;;;1.85;;
23732;SDS011;12047;53.450;-2.286;2023-03-01T08:54:52;5.68;;;1.67;;
23732;SDS011;12047;53.450;-2.286;2023-03-01T08:59:53;5.43;;;1.85;;
23732;SDS011;12047;53.450;-2.286;2023-03-01T09:04:56;9.80;;;1.95;;
23732;SDS011;12047;53.450;-2.286;2023-03-01T09:09:56;5.82;;;2.10;;
23732;SDS011;12047;53.450;-2.286;2023-03-01T09:14:57;4.70;;;1.77;;
23732;SDS011;12047;53.450;-2.286;2023-03-01T09:19:57;4.65;;;1.70;;
23732;SDS011;12047;53.450;-2.286;2023-03-01T09:25:00;5.18;;;1.50;;
23732;SDS011;12047;53.450;-2.286;2023-03-01T09:30:00;5.43;;;1.30;;
23732;SDS011;12047;53.450;-2.286;2023-03-01T09:35:02;3.03;;;1.10;;
23732;SDS011;12047;53.450;-2.286;2023-03-01T09:40:05;5.32;;;1.00;;
23732;SDS011;12047;53.450;-2.286;2023-03-01T09:45:11;7.72;;;1.50;;
23732;SDS011;12047;53.450;-2.286;2023-03-01T09:50:26;3.53;;;1.00;;
23732;SDS011;12047;53.450;-2.286;2023-03-01T09:55:33;3.17;;;0.80;;
23732;SDS011;12047;53.450;-2.286;2023-03-01T10:00:41;6.38;;;1.00;;
23732;SDS011;12047;53.450;-2.286;2023-03-01T10:11:02;4.18;;;1.55;;
23732;SDS011;12047;53.450;-2.286;2023-03-01T10:21:45;4.57;;;1.15;;
23732;SDS011;12047;53.450;-2.286;2023-03-01T10:26:57;5.27;;;1.20;;
23732;SDS011;12047;53.450;-2.286;2023-03-01T10:32:02;6.13;;;1.50;;
23732;SDS011;12047;53.450;-2.286;2023-03-01T10:37:10;7.10;;;1.10;;
23732;SDS011;12047;53.450;-2.286;2023-03-01T10:42:22;4.93;;;1.20;;
23732;SDS011;12047;53.450;-2.286;2023-03-01T10:47:27;5.97;;;1.02;;
23732;SDS011;12047;53.450;-2.286;2023-03-01T10:57:30;4.43;;;1.17;;
23732;SDS011;12047;53.450;-2.286;2023-03-01T11:02:33;3.63;;;1.00;;
23732;SDS011;12047;53.450;-2.286;2023-03-01T11:07:46;4.55;;;1.25;;
23732;SDS011;12047;53.450;-2.286;2023-03-01T11:13:37;2.72;;;0.55;;
23732;SDS011;12047;53.450;-2.286;2023-03-01T11:18:22;4.40;;;1.00;;
23732;SDS011;12047;53.450;-2.286;2023-03-01T11:23:23;5.32;;;1.17;;
23732;SDS011;12047;53.450;-2.286;2023-03-01T11:28:24;4.00;;;0.90;;
23732;SDS011;12047;53.450;-2.286;2023-03-01T11:38:37;6.43;;;0.95;;
23732;SDS011;12047;53.450;-2.286;2023-03-01T11:43:59;2.13;;;0.80;;
23732;SDS011;12047;53.450;-2.286;2023-03-01T12:11:13;3.60;;;0.90;;
23732;SDS011;12047;53.450;-2.286;2023-03-01T12:38:06;2.47;;;0.80;;
23732;SDS011;12047;53.450;-2.286;2023-03-01T12:49:15;5.63;;;1.00;;
23732;SDS011;12047;53.450;-2.286;2023-03-01T12:54:21;3.40;;;0.77;;
23732;SDS011;12047;53.450;-2.286;2023-03-01T12:59:34;4.57;;;1.13;;
23732;SDS011;12047;53.450;-2.286;2023-03-01T13:04:40;2.10;;;0.80;;
23732;SDS011;12047;53.450;-2.286;2023-03-01T13:20:24;1.98;;;0.70;;
23732;SDS011;12047;53.450;-2.286;2023-03-01T13:25:25;2.58;;;1.10;;
23732;SDS011;12047;53.450;-2.286;2023-03-01T13:35:44;2.97;;;0.80;;
23732;SDS011;12047;53.450;-2.286;2023-03-01T13:45:51;3.77;;;0.90;;
23732;SDS011;12047;53.450;-2.286;2023-03-01T13:50:59;3.05;;;1.05;;
23732;SDS011;12047;53.450;-2.286;2023-03-01T13:56:08;1.75;;;0.60;;
23732;SDS011;12047;53.450;-2.286;2023-03-01T14:01:23;1.85;;;0.93;;
23732;SDS011;12047;53.450;-2.286;2023-03-01T14:06:35;2.88;;;0.88;;
23732;SDS011;12047;53.450;-2.286;2023-03-01T14:16:55;3.80;;;0.85;;
23732;SDS011;12047;53.450;-2.286;2023-03-01T14:27:31;7.07;;;1.17;;
23732;SDS011;12047;53.450;-2.286;2023-03-01T14:32:39;3.25;;;1.00;;
23732;SDS011;12047;53.450;-2.286;2023-03-01T14:37:43;3.17;;;1.40;;
23732;SDS011;12047;53.450;-2.286;2023-03-01T14:42:43;3.88;;;1.17;;
23732;SDS011;12047;53.450;-2.286;2023-03-01T14:47:44;2.20;;;0.90;;
23732;SDS011;12047;53.450;-2.286;2023-03-01T14:52:47;2.95;;;1.02;;
23732;SDS011;12047;53.450;-2.286;2023-03-01T14:57:50;1.55;;;0.60;;
23732;SDS011;12047;53.450;-2.286;2023-03-01T15:02:52;2.80;;;1.00;;
23732;SDS011;12047;53.450;-2.286;2023-03-01T15:07:54;4.88;;;0.73;;
23732;SDS011;12047;53.450;-2.286;2023-03-01T15:13:09;3.58;;;1.17;;
23732;SDS011;12047;53.450;-2.286;2023-03-01T15:18:33;3.90;;;0.95;;
23732;SDS011;12047;53.450;-2.286;2023-03-01T15:23:35;2.47;;;0.80;;
23732;SDS011;12047;53.450;-2.286;2023-03-01T15:28:41;4.55;;;0.90;;
23732;SDS011;12047;53.450;-2.286;2023-03-01T15:33:52;3.45;;;1.08;;
23732;SDS011;12047;53.450;-2.286;2023-03-01T15:39:42;8.02;;;0.98;;
23732;SDS011;12047;53.450;-2.286;2023-03-01T15:44:40;4.32;;;1.10;;
23732;SDS011;12047;53.450;-2.286;2023-03-01T15:49:47;3.83;;;1.50;;
23732;SDS011;12047;53.450;-2.286;2023-03-01T15:54:51;4.70;;;1.15;;
23732;SDS011;12047;53.450;-2.286;2023-03-01T15:59:51;5.03;;;1.17;;
23732;SDS011;12047;53.450;-2.286;2023-03-01T16:04:52;3.70;;;1.10;;
23732;SDS011;12047;53.450;-2.286;2023-03-01T16:09:53;6.70;;;1.10;;
23732;SDS011;12047;53.450;-2.286;2023-03-01T16:14:54;4.22;;;1.27;;
23732;SDS011;12047;53.450;-2.286;2023-03-01T16:19:57;5.20;;;1.20;;
23732;SDS011;12047;53.450;-2.286;2023-03-01T16:24:58;10.77;;;1.48;;
23732;SDS011;12047;53.450;-2.286;2023-03-01T16:29:59;4.32;;;1.13;;
23732;SDS011;12047;53.450;-2.286;2023-03-01T16:34:59;4.32;;;0.93;;
23732;SDS011;12047;53.450;-2.286;2023-03-01T16:40:00;3.70;;;0.93;;
23732;SDS011;12047;53.450;-2.286;2023-03-01T16:45:01;6.50;;;1.10;;
23732;SDS011;12047;53.450;-2.286;2023-03-01T16:50:02;2.92;;;1.02;;
23732;SDS011;12047;53.450;-2.286;2023-03-01T16:55:15;5.05;;;1.40;;
23732;SDS011;12047;53.450;-2.286;2023-03-01T17:00:24;4.75;;;1.40;;
23732;SDS011;12047;53.450;-2.286;2023-03-01T17:05:25;7.55;;;1.60;;
23732;SDS011;12047;53.450;-2.286;2023-03-01T17:10:26;4.28;;;1.33;;
23732;SDS011;12047;53.450;-2.286;2023-03-01T17:15:29;3.88;;;1.20;;
23732;SDS011;12047;53.450;-2.286;2023-03-01T17:20:30;2.50;;;1.20;;
23732;SDS011;12047;53.450;-2.286;2023-03-01T17:25:30;4.68;;;1.40;;
23732;SDS011;12047;53.450;-2.286;2023-03-01T17:30:31;6.88;;;1.55;;
23732;SDS011;12047;53.450;-2.286;2023-03-01T17:35:31;4.25;;;1.80;;
23732;SDS011;12047;53.450;-2.286;2023-03-01T17:40:37;5.88;;;2.35;;
23732;SDS011;12047;53.450;-2.286;2023-03-01T17:45:39;6.28;;;2.03;;
23732;SDS011;12047;53.450;-2.286;2023-03-01T17:50:40;4.57;;;1.73;;
23732;SDS011;12047;53.450;-2.286;2023-03-01T17:55:41;3.65;;;1.75;;
23732;SDS011;12047;53.450;-2.286;2023-03-01T18:05:52;5.25;;;1.80;;
23732;SDS011;12047;53.450;-2.286;2023-03-01T18:10:59;3.03;;;1.48;;
23732;SDS011;12047;53.450;-2.286;2023-03-01T18:16:03;4.07;;;1.67;;
23732;SDS011;12047;53.450;-2.286;2023-03-01T18:21:12;5.22;;;1.85;;
23732;SDS011;12047;53.450;-2.286;2023-03-01T18:26:16;3.17;;;1.48;;
23732;SDS011;12047;53.450;-2.286;2023-03-01T18:31:41;4.90;;;1.42;;
23732;SDS011;12047;53.450;-2.286;2023-03-01T18:36:44;4.70;;;1.60;;
23732;SDS011;12047;53.450;-2.286;2023-03-01T18:41:50;4.20;;;1.60;;
23732;SDS011;12047;53.450;-2.286;2023-03-01T18:46:51;3.75;;;1.30;;
23732;SDS011;12047;53.450;-2.286;2023-03-01T18:51:52;3.42;;;1.38;;
23732;SDS011;12047;53.450;-2.286;2023-03-01T18:56:55;7.18;;;1.88;;
23732;SDS011;12047;53.450;-2.286;2023-03-01T19:01:56;5.15;;;1.38;;
23732;SDS011;12047;53.450;-2.286;2023-03-01T19:07:04;4.82;;;1.30;;
23732;SDS011;12047;53.450;-2.286;2023-03-01T19:12:05;8.00;;;1.70;;
23732;SDS011;12047;53.450;-2.286;2023-03-01T19:22:30;10.43;;;2.20;;
23732;SDS011;12047;53.450;-2.286;2023-03-01T19:27:30;3.13;;;1.33;;
23732;SDS011;12047;53.450;-2.286;2023-03-01T19:37:35;5.13;;;1.80;;
23732;SDS011;12047;53.450;-2.286;2023-03-01T19:42:39;5.45;;;1.60;;
23732;SDS011;12047;53.450;-2.286;2023-03-01T19:47:44;7.40;;;1.73;;
23732;SDS011;12047;53.450;-2.286;2023-03-01T19:52:53;6.00;;;1.85;;
23732;SDS011;12047;53.450;-2.286;2023-03-01T19:57:57;7.85;;;1.88;;
23732;SDS011;12047;53.450;-2.286;2023-03-01T20:03:01;6.90;;;2.05;;
23732;SDS011;12047;53.450;-2.286;2023-03-01T20:08:02;7.60;;;1.48;;
23732;SDS011;12047;53.450;-2.286;2023-03-01T20:13:04;7.25;;;1.23;;
23732;SDS011;12047;53.450;-2.286;2023-03-01T20:18:47;5.68;;;1.70;;
23732;SDS011;12047;53.450;-2.286;2023-03-01T20:23:28;10.63;;;1.65;;
23732;SDS011;12047;53.450;-2.286;2023-03-01T20:28:33;11.38;;;2.33;;
23732;SDS011;12047;53.450;-2.286;2023-03-01T20:33:37;6.35;;;2.03;;
23732;SDS011;12047;53.450;-2.286;2023-03-01T20:38:38;10.40;;;4.20;;
23732;SDS011;12047;53.450;-2.286;2023-03-01T20:43:41;6.28;;;1.42;;
23732;SDS011;12047;53.450;-2.286;2023-03-01T20:48:42;6.13;;;1.60;;
23732;SDS011;12047;53.450;-2.286;2023-03-01T20:53:45;5.63;;;1.63;;
23732;SDS011;12047;53.450;-2.286;2023-03-01T20:58:47;4.68;;;1.50;;
23732;SDS011;12047;53.450;-2.286;2023-03-01T21:03:48;6.68;;;1.77;;
23732;SDS011;12047;53.450;-2.286;2023-03-01T21:08:49;5.07;;;1.70;;
23732;SDS011;12047;53.450;-2.286;2023-03-01T21:13:51;10.90;;;2.17;;
23732;SDS011;12047;53.450;-2.286;2023-03-01T21:18:52;3.33;;;1.70;;
23732;SDS011;12047;53.450;-2.286;2023-03-01T21:23:54;6.60;;;2.00;;
23732;SDS011;12047;53.450;-2.286;2023-03-01T21:28:56;8.07;;;2.20;;
23732;SDS011;12047;53.450;-2.286;2023-03-01T21:34:04;7.45;;;1.88;;
23732;SDS011;12047;53.450;-2.286;2023-03-01T21:39:05;4.95;;;1.58;;
23732;SDS011;12047;53.450;-2.286;2023-03-01T21:44:06;5.00;;;1.90;;
23732;SDS011;12047;53.450;-2.286;2023-03-01T21:49:07;6.72;;;1.92;;
23732;SDS011;12047;53.450;-2.286;2023-03-01T21:54:13;4.70;;;1.50;;
23732;SDS011;12047;53.450;-2.286;2023-03-01T21:59:18;6.78;;;1.85;;
23732;SDS011;12047;53.450;-2.286;2023-03-01T22:04:21;8.20;;;1.90;;
23732;SDS011;12047;53.450;-2.286;2023-03-01T22:09:21;9.82;;;2.47;;
23732;SDS011;12047;53.450;-2.286;2023-03-01T22:14:25;8.18;;;2.33;;
23732;SDS011;12047;53.450;-2.286;2023-03-01T22:19:29;7.78;;;2.22;;
23732;SDS011;12047;53.450;-2.286;2023-03-01T22:24:30;14.45;;;1.92;;
23732;SDS011;12047;53.450;-2.286;2023-03-01T22:29:30;5.60;;;1.88;;
23732;SDS011;12047;53.450;-2.286;2023-03-01T22:34:31;6.60;;;1.90;;
23732;SDS011;12047;53.450;-2.286;2023-03-01T22:39:33;6.68;;;1.90;;
23732;SDS011;12047;53.450;-2.286;2023-03-01T22:44:33;6.43;;;1.70;;
23732;SDS011;12047;53.450;-2.286;2023-03-01T22:49:34;8.85;;;1.95;;
23732;SDS011;12047;53.450;-2.286;2023-03-01T22:54:35;4.82;;;1.23;;
23732;SDS011;12047;53.450;-2.286;2023-03-01T22:59:35;11.55;;;1.80;;
23732;SDS011;12047;53.450;-2.286;2023-03-01T23:04:36;7.85;;;1.50;;
23732;SDS011;12047;53.450;-2.286;2023-03-01T23:09:37;6.07;;;1.90;;
23732;SDS011;12047;53.450;-2.286;2023-03-01T23:14:38;11.48;;;2.53;;
23732;SDS011;12047;53.450;-2.286;2023-03-01T23:19:40;7.75;;;1.85;;
23732;SDS011;12047;53.450;-2.286;2023-03-01T23:24:41;9.65;;;1.65;;
23732;SDS011;12047;53.450;-2.286;2023-03-01T23:29:42;6.28;;;1.40;;
23732;SDS011;12047;53.450;-2.286;2023-03-01T23:34:43;7.30;;;1.60;;
23732;SDS011;12047;53.450;-2.286;2023-03-01T23:39:44;5.55;;;1.20;;
23732;SDS011;12047;53.450;-2.286;2023-03-01T23:44:44;5.90;;;1.20;;
23732;SDS011;12047;53.450;-2.286;2023-03-01T23:49:45;6.05;;;1.38;;
23732;SDS011;12047;53.450;-2.286;2023-03-01T23:54:49;8.07;;;1.58;;
23732;SDS011;12047;53.450;-2.286;2023-03-01T23:59:50;7.35;;;1.73;;
